Time;durP1;ratioP1;P1;durP2;ratioP2;P2;SDS_P1;SDS_P2;PMS_P1;PMS_P2;Temp;Humidity;BMP_temperature;BMP_pressure;BME280_temperature;BME280_humidity;BME280_pressure;Samples;Min_cycle;Max_cycle;Signal;HPM_P1;HPM_P2
2021/05/26 00:02:04;;;;;;;26.42;10.95;;;;;;;8.10;100.00;101255.75;5103465;28;20447;-65
2021/05/26 00:04:30;;;;;;;27.20;10.02;;;;;;;8.10;100.00;101246.09;5101292;28;20020;-65
2021/05/26 00:06:55;;;;;;;26.35;10.38;;;;;;;8.10;100.00;101255.75;5104525;28;20020;-65
2021/05/26 00:09:20;;;;;;;26.08;10.20;;;;;;;8.11;100.00;101247.88;5101439;28;20356;-65
2021/05/26 00:11:46;;;;;;;28.45;10.40;;;;;;;8.13;100.00;101250.56;5103127;28;20402;-65
2021/05/26 00:14:11;;;;;;;27.30;10.93;;;;;;;8.15;100.00;101246.19;5102053;28;20096;-65
2021/05/26 00:16:37;;;;;;;26.30;10.25;;;;;;;8.18;100.00;101240.97;5101935;28;20028;-65
2021/05/26 00:19:06;;;;;;;28.20;10.68;;;;;;;8.20;100.00;101241.94;5103373;28;20033;-65
2021/05/26 00:21:32;;;;;;;30.77;10.77;;;;;;;8.21;100.00;101235.78;5100060;28;20412;-65
2021/05/26 00:23:57;;;;;;;28.13;10.65;;;;;;;8.25;100.00;101231.47;5104462;28;20072;-65
2021/05/26 00:26:22;;;;;;;27.60;10.48;;;;;;;8.26;100.00;101234.13;5100555;28;20390;-65
2021/05/26 00:28:48;;;;;;;27.15;10.77;;;;;;;8.27;100.00;101228.03;5103241;28;20086;-65
2021/05/26 00:31:13;;;;;;;28.67;10.75;;;;;;;8.28;100.00;101224.50;5101978;28;20015;-66
2021/05/26 00:33:39;;;;;;;27.50;10.35;;;;;;;8.29;100.00;101223.66;5105627;28;20027;-65
2021/05/26 00:36:04;;;;;;;26.63;10.10;;;;;;;8.30;100.00;101219.28;5106901;28;20156;-66
2021/05/26 00:38:30;;;;;;;28.08;10.57;;;;;;;8.32;100.00;101221.09;5104323;28;20024;-76
2021/05/26 00:40:55;;;;;;;29.38;10.57;;;;;;;8.31;100.00;101227.19;5107509;28;20030;-73
2021/05/26 00:43:21;;;;;;;28.83;10.60;;;;;;;8.29;100.00;101212.25;5104459;28;20467;-66
2021/05/26 00:45:46;;;;;;;28.13;10.57;;;;;;;8.30;100.00;101209.63;5106168;28;20100;-65
2021/05/26 00:48:12;;;;;;;30.50;11.13;;;;;;;8.31;100.00;101206.13;5105583;28;20032;-65
2021/05/26 00:50:39;;;;;;;31.25;10.80;;;;;;;8.33;100.00;101199.16;5105269;28;20024;-68
2021/05/26 00:53:10;;;;;;;32.47;11.20;;;;;;;8.35;100.00;101196.56;5106294;28;20051;-66
2021/05/26 00:55:37;;;;;;;30.92;11.00;;;;;;;8.32;100.00;101194.75;5104589;28;20027;-71
2021/05/26 00:58:05;;;;;;;28.88;10.60;;;;;;;8.31;100.00;101195.59;5106605;28;20030;-66
2021/05/26 01:00:32;;;;;;;28.73;10.32;;;;;;;8.31;100.00;101185.06;5103673;28;20042;-69
2021/05/26 01:02:58;;;;;;;30.65;11.20;;;;;;;8.30;100.00;101183.31;5107080;28;20107;-72
2021/05/26 01:05:24;;;;;;;31.52;10.75;;;;;;;8.24;100.00;101185.78;5103733;28;20089;-70
2021/05/26 01:07:52;;;;;;;27.77;10.57;;;;;;;8.23;100.00;101181.41;5106513;28;20080;-69
2021/05/26 01:10:19;;;;;;;29.88;10.88;;;;;;;8.26;100.00;101181.47;5104207;28;20026;-68
2021/05/26 01:12:45;;;;;;;29.17;11.18;;;;;;;8.22;100.00;101184.88;5105779;28;20027;-71
2021/05/26 01:15:13;;;;;;;32.45;12.02;;;;;;;8.21;100.00;101177.84;5104946;28;20027;-70
2021/05/26 01:17:38;;;;;;;29.83;11.18;;;;;;;8.22;100.00;101176.09;5104864;28;20031;-74
2021/05/26 01:20:06;;;;;;;30.17;11.73;;;;;;;8.19;100.00;101179.56;5106096;28;20034;-72
2021/05/26 01:22:32;;;;;;;32.53;11.57;;;;;;;8.22;100.00;101176.97;5103524;28;20035;-71
2021/05/26 01:24:57;;;;;;;31.55;11.43;;;;;;;8.20;100.00;101162.91;5106666;28;20032;-69
2021/05/26 01:27:23;;;;;;;30.15;11.75;;;;;;;8.22;100.00;101176.97;5103340;28;20024;-66
2021/05/26 01:29:49;;;;;;;32.70;11.52;;;;;;;8.19;100.00;101169.03;5105487;28;20039;-66
2021/05/26 01:32:15;;;;;;;31.48;11.25;;;;;;;8.18;100.00;101162.88;5104159;28;20378;-73
2021/05/26 01:34:40;;;;;;;33.95;11.73;;;;;;;8.20;100.00;101165.53;5104882;28;20028;-71
2021/05/26 01:37:05;;;;;;;29.05;10.63;;;;;;;8.24;100.00;101161.22;5105528;27;20054;-66
2021/05/26 01:39:31;;;;;;;30.67;11.68;;;;;;;8.23;100.00;101160.34;5103129;28;20024;-65
2021/05/26 01:41:56;;;;;;;28.67;10.90;;;;;;;8.23;100.00;101168.25;5106510;28;20466;-67
2021/05/26 01:44:26;;;;;;;31.15;11.18;;;;;;;8.24;100.00;101156.81;5102304;28;20028;-65
2021/05/26 01:46:51;;;;;;;30.20;10.38;;;;;;;8.24;100.00;101156.81;5105543;28;20024;-66
2021/05/26 01:49:17;;;;;;;29.42;10.13;;;;;;;8.25;100.00;101155.09;5103809;28;20035;-65
2021/05/26 01:51:42;;;;;;;32.13;11.02;;;;;;;8.30;100.00;101149.06;5104712;28;20020;-66
2021/05/26 01:54:07;;;;;;;29.95;9.13;;;;;;;8.29;100.00;101149.91;5104810;28;20029;-66
2021/05/26 01:56:34;;;;;;;31.77;9.98;;;;;;;8.29;100.00;101149.91;5103202;28;20458;-65
2021/05/26 01:59:00;;;;;;;30.90;9.25;;;;;;;8.29;100.00;101138.50;5105900;28;20041;-65
2021/05/26 02:01:26;;;;;;;27.83;8.80;;;;;;;8.26;100.00;101149.84;5102257;28;20534;-65
2021/05/26 02:03:53;;;;;;;29.17;9.10;;;;;;;8.22;100.00;101148.00;5105692;28;20043;-71
2021/05/26 02:06:20;;;;;;;29.15;9.27;;;;;;;8.13;100.00;101148.72;5103074;28;20458;-68
2021/05/26 02:08:49;;;;;;;29.77;9.18;;;;;;;8.06;100.00;101146.84;5104621;28;20413;-65
2021/05/26 02:14:01;;;;;;;29.60;8.27;;;;;;;7.99;100.00;101148.47;5098916;28;20040;-66
2021/05/26 02:16:27;;;;;;;28.65;8.52;;;;;;;7.91;100.00;101146.56;5105838;28;20103;-68
2021/05/26 02:18:52;;;;;;;30.10;8.32;;;;;;;7.86;100.00;101149.06;5102319;28;20107;-65
2021/05/26 02:21:18;;;;;;;26.88;8.15;;;;;;;7.84;100.00;101138.50;5104657;28;20488;-72
2021/05/26 02:23:43;;;;;;;29.73;8.77;;;;;;;7.76;100.00;101136.56;5103489;28;20100;-70
2021/05/26 02:26:09;;;;;;;31.13;9.52;;;;;;;7.74;100.00;101140.94;5103431;28;20056;-68
2021/05/26 02:28:34;;;;;;;30.05;9.07;;;;;;;7.70;100.00;101136.44;5104649;28;20122;-66
2021/05/26 02:30:59;;;;;;;32.35;9.98;;;;;;;7.70;100.00;101131.19;5102187;28;20016;-66
2021/05/26 02:33:25;;;;;;;27.70;9.32;;;;;;;7.67;100.00;101127.66;5105446;28;20077;-66
2021/05/26 02:35:50;;;;;;;28.83;9.43;;;;;;;7.65;100.00;101133.72;5102389;28;20028;-67
2021/05/26 02:38:15;;;;;;;28.48;9.38;;;;;;;7.64;100.00;101129.31;5103955;28;20020;-67
2021/05/26 02:40:41;;;;;;;30.63;9.48;;;;;;;7.62;100.00;101134.56;5104112;28;20064;-66
2021/05/26 02:43:06;;;;;;;28.67;9.27;;;;;;;7.60;100.00;101136.28;5102575;28;20026;-66
2021/05/26 02:45:32;;;;;;;26.52;9.00;;;;;;;7.61;100.00;101137.16;5104672;28;20114;-69
2021/05/26 02:47:58;;;;;;;29.40;8.98;;;;;;;7.65;100.00;101131.97;5101849;28;20108;-68
2021/05/26 02:50:24;;;;;;;29.08;9.10;;;;;;;7.64;100.00;101127.56;5105010;28;20377;-67
2021/05/26 02:52:51;;;;;;;27.33;8.60;;;;;;;7.66;100.00;101125.88;5102282;28;20028;-70
2021/05/26 02:55:18;;;;;;;26.90;8.90;;;;;;;7.70;100.00;101124.16;5103786;28;20052;-84
2021/05/26 02:57:43;;;;;;;28.38;9.07;;;;;;;7.72;100.00;101121.56;5103165;28;20045;-66
2021/05/26 03:00:10;;;;;;;25.95;7.85;;;;;;;7.71;100.00;101120.69;5102519;28;20565;-67
2021/05/26 03:02:36;;;;;;;27.85;8.45;;;;;;;7.73;100.00;101123.34;5104358;28;20127;-71
2021/05/26 03:05:03;;;;;;;26.55;8.05;;;;;;;7.73;100.00;101123.34;5102109;28;20059;-78
2021/05/26 03:07:29;;;;;;;25.40;7.93;;;;;;;7.72;100.00;101134.72;5105094;28;20027;-84
2021/05/26 03:09:54;;;;;;;25.65;7.82;;;;;;;7.74;100.00;101122.50;5101533;28;20028;-65
2021/05/26 03:12:19;;;;;;;25.20;7.88;;;;;;;7.71;100.00;101119.81;5103936;28;20108;-64
2021/05/26 03:14:45;;;;;;;25.55;7.35;;;;;;;7.67;100.00;101119.75;5102804;28;20458;-64
2021/05/26 03:17:10;;;;;;;26.20;7.32;;;;;;;7.66;100.00;101120.59;5102683;28;20463;-64
2021/05/26 03:19:35;;;;;;;25.15;7.93;;;;;;;7.65;100.00;101123.22;5103974;28;20053;-64
2021/05/26 03:22:01;;;;;;;24.40;8.05;;;;;;;7.65;100.00;101128.47;5101784;28;20024;-65
2021/05/26 03:24:27;;;;;;;25.10;8.05;;;;;;;7.66;100.00;101114.47;5104568;28;20490;-64
2021/05/26 03:26:52;;;;;;;27.88;7.88;;;;;;;7.65;100.00;101116.19;5101491;28;20459;-64
2021/05/26 03:29:18;;;;;;;27.13;7.82;;;;;;;7.63;100.00;101120.53;5103423;28;20044;-64
2021/05/26 03:31:43;;;;;;;24.55;7.90;;;;;;;7.62;100.00;101121.41;5102604;28;20031;-65
2021/05/26 03:34:09;;;;;;;25.52;7.95;;;;;;;7.64;100.00;101122.28;5102002;28;20031;-65
2021/05/26 03:36:37;;;;;;;25.88;7.82;;;;;;;7.64;100.00;101114.41;5104281;28;20024;-65
2021/05/26 03:39:04;;;;;;;27.85;8.38;;;;;;;7.64;100.00;101109.16;5101236;28;20463;-64
2021/05/26 03:41:29;;;;;;;25.25;8.55;;;;;;;7.59;100.00;101108.19;5104691;28;20038;-64
2021/05/26 03:43:54;;;;;;;26.95;8.50;;;;;;;7.56;100.00;101108.13;5101436;28;20099;-64
2021/05/26 03:46:20;;;;;;;26.70;8.27;;;;;;;7.56;100.00;101110.75;5103781;28;20073;-64
2021/05/26 03:48:45;;;;;;;25.10;8.27;;;;;;;7.55;100.00;101103.69;5102377;28;20020;-64
2021/05/26 03:51:10;;;;;;;27.17;8.52;;;;;;;7.53;100.00;101102.78;5102429;28;20555;-74
2021/05/26 03:53:36;;;;;;;26.33;8.18;;;;;;;7.57;100.00;101103.72;5103489;28;20038;-66
2021/05/26 03:56:01;;;;;;;24.50;9.10;;;;;;;7.59;100.00;101097.66;5100967;28;20040;-65
2021/05/26 03:58:26;;;;;;;25.85;8.60;;;;;;;7.56;100.00;101102.84;5104579;28;20085;-70
2021/05/26 04:00:52;;;;;;;26.48;9.35;;;;;;;7.59;100.00;101097.66;5101541;28;20036;-65
2021/05/26 04:03:17;;;;;;;27.98;8.65;;;;;;;7.62;100.00;101100.34;5103159;28;20095;-65
2021/05/26 04:05:43;;;;;;;24.27;8.85;;;;;;;7.62;100.00;101100.34;5102908;28;20470;-65
2021/05/26 04:08:08;;;;;;;26.30;9.15;;;;;;;7.62;100.00;101102.97;5105101;28;20382;-69
2021/05/26 04:10:33;;;;;;;26.75;9.05;;;;;;;7.63;100.00;101101.22;5107831;28;20054;-68
2021/05/26 04:12:59;;;;;;;27.30;9.02;;;;;;;7.64;100.00;101097.75;5104411;28;20073;-64
2021/05/26 04:15:24;;;;;;;25.80;9.02;;;;;;;7.65;100.00;101097.78;5107616;28;20529;-65
2021/05/26 04:17:49;;;;;;;22.92;7.97;;;;;;;7.67;100.00;101097.78;5105372;28;20026;-65
2021/05/26 04:20:15;;;;;;;26.30;8.82;;;;;;;7.65;100.00;101096.91;5106163;28;20110;-66
2021/05/26 04:22:40;;;;;;;26.40;9.05;;;;;;;7.61;100.00;101097.69;5106814;28;20051;-71
2021/05/26 04:25:07;;;;;;;24.80;8.13;;;;;;;7.65;100.00;101096.91;5105419;28;20459;-66
2021/05/26 04:27:33;;;;;;;26.48;8.55;;;;;;;7.64;100.00;101085.47;5107375;28;20501;-65
2021/05/26 04:30:00;;;;;;;26.45;8.43;;;;;;;7.70;100.00;101089.97;5104483;28;20046;-69
2021/05/26 04:32:25;;;;;;;23.55;8.30;;;;;;;7.68;100.00;101082.03;5108008;28;20107;-65
2021/05/26 04:34:50;;;;;;;23.27;8.00;;;;;;;7.72;100.00;101088.28;5104702;28;20575;-71
2021/05/26 04:37:17;;;;;;;25.10;8.80;;;;;;;7.73;100.00;101086.50;5106099;28;20020;-68
2021/05/26 04:39:46;;;;;;;23.90;7.80;;;;;;;7.75;100.00;101087.44;5106048;28;20062;-67
2021/05/26 04:42:11;;;;;;;24.45;8.40;;;;;;;7.72;100.00;101090.00;5105370;28;20069;-68
2021/05/26 04:44:36;;;;;;;24.48;7.75;;;;;;;7.71;100.00;101085.59;5106587;28;20023;-68
2021/05/26 04:47:03;;;;;;;24.35;7.75;;;;;;;7.71;100.00;101089.13;5104134;28;20028;-69
2021/05/26 04:49:29;;;;;;;23.10;7.80;;;;;;;7.74;100.00;101090.94;5107189;28;20612;-73
2021/05/26 04:51:56;;;;;;;26.35;8.20;;;;;;;7.71;100.00;101086.47;5104147;28;20028;-65
2021/05/26 04:54:21;;;;;;;23.42;7.78;;;;;;;7.70;100.00;101089.09;5106839;28;20076;-65
2021/05/26 04:56:47;;;;;;;24.58;7.72;;;;;;;7.62;100.00;101081.94;5104781;28;20416;-66
2021/05/26 04:59:12;;;;;;;24.63;7.97;;;;;;;7.61;100.00;101088.03;5105392;28;20107;-70
2021/05/26 05:01:38;;;;;;;22.77;7.65;;;;;;;7.59;100.00;101073.97;5106189;28;20398;-71
2021/05/26 05:04:04;;;;;;;22.13;7.95;;;;;;;7.60;100.00;101077.47;5103627;28;20104;-66
2021/05/26 05:06:29;;;;;;;22.02;7.43;;;;;;;7.57;100.00;101075.69;5107477;28;20024;-70
2021/05/26 05:08:54;;;;;;;22.20;7.30;;;;;;;7.54;100.00;101078.25;5103688;28;20457;-65
2021/05/26 05:11:20;;;;;;;22.77;7.15;;;;;;;7.54;100.00;101074.72;5105957;28;20027;-65
2021/05/26 05:13:46;;;;;;;22.02;6.25;;;;;;;7.58;100.00;101074.81;5103596;28;20036;-65
2021/05/26 05:16:11;;;;;;;21.75;6.63;;;;;;;7.63;100.00;101073.19;5104620;28;20540;-66
2021/05/26 05:18:36;;;;;;;22.05;6.30;;;;;;;7.67;99.92;101076.75;5105053;28;20024;-65
2021/05/26 05:21:03;;;;;;;22.33;7.10;;;;;;;7.73;99.74;101074.22;5103276;28;20024;-65
2021/05/26 05:23:28;;;;;;;22.05;6.65;;;;;;;7.85;99.77;101068.34;5093310;28;20035;-66
2021/05/26 05:25:54;;;;;;;22.35;6.57;;;;;;;7.99;97.24;101074.75;5093598;28;20367;-66
2021/05/26 05:28:19;;;;;;;20.85;6.03;;;;;;;8.13;96.15;101068.84;5087487;28;20036;-65
2021/05/26 05:30:45;;;;;;;21.08;6.10;;;;;;;8.20;95.28;101061.06;5097470;28;20133;-66
2021/05/26 05:33:10;;;;;;;21.83;6.18;;;;;;;8.20;97.23;101066.34;5089376;28;20044;-65
2021/05/26 05:35:36;;;;;;;21.67;5.80;;;;;;;8.15;95.20;101067.13;5092514;28;20483;-65
2021/05/26 05:38:01;;;;;;;20.70;6.13;;;;;;;8.09;95.12;101065.25;5095118;28;20024;-66
2021/05/26 05:40:27;;;;;;;20.83;5.90;;;;;;;8.09;94.46;101072.28;5093217;28;20032;-66
2021/05/26 05:42:52;;;;;;;21.17;5.55;;;;;;;8.10;94.63;101058.28;5093962;28;20089;-66
2021/05/26 05:45:17;;;;;;;19.63;5.03;;;;;;;8.09;94.45;101064.38;5095639;28;20028;-65
2021/05/26 05:47:43;;;;;;;20.10;5.35;;;;;;;8.10;93.28;101050.38;5092542;28;20024;-65
2021/05/26 05:50:18;;;;;;;19.05;5.13;;;;;;;8.15;94.41;101056.59;5093894;28;20036;-65
2021/05/26 05:52:48;;;;;;;18.20;5.10;;;;;;;8.17;93.23;101061.03;5090878;28;20020;-66
2021/05/26 05:55:15;;;;;;;20.58;5.32;;;;;;;8.22;92.87;101055.84;5093229;28;20020;-66
2021/05/26 05:57:40;;;;;;;19.30;5.18;;;;;;;8.25;91.25;101055.88;5090264;28;20028;-66
2021/05/26 06:00:08;;;;;;;20.50;5.43;;;;;;;8.32;92.91;101060.41;5092483;28;20364;-65
2021/05/26 06:02:34;;;;;;;20.15;5.88;;;;;;;8.45;93.91;101061.53;5092425;28;20474;-65
2021/05/26 06:04:59;;;;;;;20.75;5.40;;;;;;;8.51;93.51;101063.38;5091963;28;20103;-66
2021/05/26 06:07:24;;;;;;;20.40;5.35;;;;;;;8.44;91.11;101058.84;5092833;28;20020;-63
2021/05/26 06:09:51;;;;;;;20.05;5.90;;;;;;;8.42;92.32;101055.28;5093487;28;20020;-64
2021/05/26 06:12:17;;;;;;;19.40;5.50;;;;;;;8.39;91.83;101056.13;5092813;28;20050;-64
2021/05/26 06:14:42;;;;;;;20.15;5.90;;;;;;;8.32;91.31;101047.22;5093820;28;20062;-65
2021/05/26 06:17:07;;;;;;;20.05;5.80;;;;;;;8.33;90.70;101043.75;5091582;28;20374;-64
2021/05/26 06:19:33;;;;;;;21.42;6.25;;;;;;;8.45;93.28;101055.38;5091969;28;20463;-64
2021/05/26 06:21:58;;;;;;;21.13;6.82;;;;;;;8.64;91.66;101062.72;5093270;28;20065;-64
2021/05/26 06:24:24;;;;;;;20.27;6.50;;;;;;;8.74;89.62;101047.94;5088190;28;20024;-64
2021/05/26 06:26:49;;;;;;;22.50;7.78;;;;;;;8.84;87.99;101048.94;5091908;28;20063;-64
2021/05/26 06:29:14;;;;;;;21.40;6.88;;;;;;;8.94;88.25;101053.50;5090113;28;20028;-64
2021/05/26 06:31:40;;;;;;;19.92;7.00;;;;;;;9.06;87.40;101056.31;5092558;28;20032;-64
2021/05/26 06:34:05;;;;;;;20.98;7.38;;;;;;;9.15;86.69;101059.94;5093030;28;20024;-64
2021/05/26 06:36:34;;;;;;;22.95;7.90;;;;;;;9.23;84.60;101055.63;5090899;28;20036;-64
2021/05/26 06:39:01;;;;;;;21.35;7.70;;;;;;;9.32;84.78;101063.69;5092883;28;20023;-65
2021/05/26 06:41:26;;;;;;;21.00;7.60;;;;;;;9.33;84.97;101060.16;5091143;28;20382;-65
2021/05/26 06:43:51;;;;;;;21.60;8.43;;;;;;;9.41;83.87;101069.06;5092660;28;20020;-66
2021/05/26 06:46:17;;;;;;;21.95;8.52;;;;;;;9.39;85.08;101060.25;5091913;28;20564;-65
2021/05/26 06:48:42;;;;;;;23.20;10.27;;;;;;;9.41;84.54;101058.53;5093702;28;20540;-65
2021/05/26 06:51:07;;;;;;;21.42;9.70;;;;;;;9.53;84.19;101062.19;5092443;28;20028;-65
2021/05/26 06:53:33;;;;;;;23.15;10.57;;;;;;;9.70;84.18;101065.91;5091663;28;20032;-65
2021/05/26 06:55:58;;;;;;;23.75;11.45;;;;;;;9.77;82.07;101067.75;5092446;28;20115;-65
2021/05/26 06:58:23;;;;;;;22.25;10.70;;;;;;;9.82;83.87;101067.78;5099525;28;20020;-65
2021/05/26 07:00:49;;;;;;;22.05;10.80;;;;;;;9.93;83.37;101057.34;5102899;28;20034;-65
2021/05/26 07:03:14;;;;;;;21.98;10.55;;;;;;;9.98;80.81;101060.03;5102006;28;20035;-65
2021/05/26 07:05:40;;;;;;;23.42;12.15;;;;;;;10.05;80.34;101059.25;5104405;28;20490;-66
2021/05/26 07:08:05;;;;;;;24.60;12.13;;;;;;;10.04;80.09;101060.97;5100871;28;20028;-65
2021/05/26 07:10:31;;;;;;;23.90;12.27;;;;;;;9.93;80.41;101062.63;5104266;28;20471;-64
2021/05/26 07:12:56;;;;;;;22.98;12.30;;;;;;;9.93;79.67;101060.88;5101782;28;20032;-64
2021/05/26 07:15:22;;;;;;;25.83;14.70;;;;;;;10.00;79.32;101058.28;5103271;28;20028;-64
2021/05/26 07:17:47;;;;;;;26.27;15.27;;;;;;;10.10;78.35;101053.09;5103431;28;20024;-64
2021/05/26 07:20:14;;;;;;;26.38;15.10;;;;;;;10.07;77.24;101058.38;5102096;28;20028;-68
2021/05/26 07:22:40;;;;;;;26.10;15.93;;;;;;;10.04;78.68;101058.34;5103987;28;20089;-66
2021/05/26 07:25:06;;;;;;;27.42;15.90;;;;;;;10.02;78.41;101056.53;5101406;28;20036;-65
2021/05/26 07:27:31;;;;;;;25.88;15.93;;;;;;;9.93;78.79;101050.31;5102246;28;20027;-65
2021/05/26 07:29:57;;;;;;;25.58;14.80;;;;;;;9.94;79.80;101064.41;5090323;28;20036;-67
2021/05/26 07:32:22;;;;;;;27.08;15.73;;;;;;;10.00;80.07;101059.16;5091315;28;20474;-65
2021/05/26 07:34:48;;;;;;;25.92;15.35;;;;;;;10.11;80.27;101057.53;5092419;28;20043;-66
2021/05/26 07:37:13;;;;;;;26.25;14.27;;;;;;;10.18;79.12;101057.56;5092473;28;20352;-66
2021/05/26 07:39:38;;;;;;;23.48;12.25;;;;;;;10.29;76.63;101051.56;5090177;28;20125;-65
2021/05/26 07:42:06;;;;;;;23.25;12.95;;;;;;;10.37;76.47;101053.38;5094283;28;20032;-66
2021/05/26 07:44:32;;;;;;;25.77;13.35;;;;;;;10.43;76.82;101049.03;5095327;28;20058;-70
2021/05/26 07:46:59;;;;;;;24.60;14.13;;;;;;;10.48;76.69;101049.06;5095663;28;20470;-67
2021/05/26 07:49:25;;;;;;;27.13;16.63;;;;;;;10.67;75.00;101047.44;5099107;28;20076;-67
2021/05/26 07:51:52;;;;;;;27.02;17.33;;;;;;;11.04;77.05;101050.34;5094964;28;20103;-68
2021/05/26 07:54:18;;;;;;;27.17;15.98;;;;;;;11.04;71.38;101039.75;5095167;28;20039;-68
2021/05/26 07:56:44;;;;;;;26.67;16.60;;;;;;;11.08;73.97;101046.84;5096463;28;20491;-67
2021/05/26 07:59:10;;;;;;;27.02;14.52;;;;;;;11.28;72.27;101038.13;5094577;28;20020;-68
2021/05/26 08:01:36;;;;;;;26.02;14.98;;;;;;;11.25;72.01;101036.31;5095869;28;20381;-70
2021/05/26 08:04:01;;;;;;;28.35;16.45;;;;;;;11.37;72.62;101040.78;5091238;28;20022;-68
2021/05/26 08:06:27;;;;;;;27.23;17.67;;;;;;;11.38;70.49;101044.34;5094757;28;20028;-66
2021/05/26 08:08:52;;;;;;;27.25;16.80;;;;;;;11.42;71.43;101032.88;5095058;28;20028;-69
2021/05/26 08:11:18;;;;;;;26.23;16.55;;;;;;;11.42;72.10;101036.41;5094632;28;20025;-68
2021/05/26 08:13:43;;;;;;;26.88;17.40;;;;;;;11.29;71.28;101045.19;5095349;28;20032;-68
2021/05/26 08:16:10;;;;;;;27.25;18.75;;;;;;;11.16;69.76;101042.47;5095440;28;20032;-65
2021/05/26 08:18:36;;;;;;;29.02;18.98;;;;;;;11.13;71.51;101038.94;5094196;28;20021;-67
2021/05/26 08:21:02;;;;;;;29.42;19.65;;;;;;;11.09;71.35;101053.00;5095653;28;20081;-68
2021/05/26 08:23:27;;;;;;;30.75;21.30;;;;;;;11.01;72.31;101050.34;5094898;28;20032;-67
2021/05/26 08:25:52;;;;;;;29.80;19.60;;;;;;;11.14;72.66;101038.06;5094334;28;20050;-69
2021/05/26 08:28:17;;;;;;;28.23;19.13;;;;;;;11.22;71.32;101040.75;5093995;28;20111;-66
2021/05/26 08:30:44;;;;;;;29.80;20.08;;;;;;;11.09;70.81;101045.94;5093193;28;20020;-67
2021/05/26 08:33:10;;;;;;;28.15;18.70;;;;;;;11.10;72.54;101031.84;5091360;28;20027;-66
2021/05/26 08:35:35;;;;;;;30.58;22.33;;;;;;;11.05;73.13;101030.06;5094803;28;20020;-65
2021/05/26 08:38:02;;;;;;;31.42;23.60;;;;;;;10.98;73.09;101039.75;5084691;28;20024;-66
2021/05/26 08:40:28;;;;;;;33.83;24.27;;;;;;;11.11;71.93;101033.63;5093614;28;20081;-66
2021/05/26 08:42:57;;;;;;;32.60;24.02;;;;;;;11.00;72.74;101040.63;5091686;28;20054;-66
2021/05/26 08:45:23;;;;;;;34.25;24.35;;;;;;;10.93;74.10;101038.81;5097699;28;20020;-66
2021/05/26 08:47:53;;;;;;;34.08;25.55;;;;;;;10.97;73.16;101028.25;5092843;28;20028;-66
2021/05/26 08:50:19;;;;;;;30.92;22.23;;;;;;;10.85;72.31;101040.50;5095228;28;20051;-68
2021/05/26 08:52:45;;;;;;;32.28;22.98;;;;;;;10.69;74.05;101028.94;5094524;28;20054;-66
2021/05/26 08:55:15;;;;;;;34.42;24.60;;;;;;;10.62;74.57;101039.50;5096441;28;20028;-65
2021/05/26 08:57:41;;;;;;;32.67;22.92;;;;;;;10.57;76.23;101037.69;5092407;28;20027;-65
2021/05/26 09:00:08;;;;;;;33.38;23.02;;;;;;;10.66;74.92;101032.47;5094249;28;20020;-65
2021/05/26 09:02:33;;;;;;;31.70;22.88;;;;;;;10.85;76.19;101030.84;5102073;28;20027;-65
2021/05/26 09:04:59;;;;;;;33.80;23.48;;;;;;;11.14;75.56;101024.84;5103984;27;20031;-65
2021/05/26 09:07:29;;;;;;;33.35;23.17;;;;;;;11.25;71.98;101024.88;5105113;28;20024;-65
2021/05/26 09:09:55;;;;;;;34.03;24.88;;;;;;;11.29;73.96;101024.00;5104424;28;20078;-65
2021/05/26 09:12:36;;;;;;;30.23;20.63;;;;;;;11.09;72.28;101014.19;5104601;28;20374;-65
2021/05/26 09:15:21;;;;;;;31.13;22.30;;;;;;;10.86;74.94;101023.78;5103683;28;20079;-65
2021/05/26 09:18:04;;;;;;;31.70;23.13;;;;;;;10.61;75.83;101026.25;5101357;28;20153;-65
2021/05/26 09:20:31;;;;;;;31.95;22.13;;;;;;;10.60;76.70;101022.75;5103685;28;20076;-65
2021/05/26 09:23:16;;;;;;;31.85;22.02;;;;;;;10.77;75.72;101021.97;5105488;28;20494;-65
2021/05/26 09:25:45;;;;;;;31.70;21.80;;;;;;;11.13;75.01;101025.69;5100264;28;20036;-65
2021/05/26 09:28:19;;;;;;;32.42;21.95;;;;;;;11.42;73.90;101012.59;5097128;28;20035;-66
2021/05/26 09:30:49;;;;;;;31.75;20.63;;;;;;;11.90;71.13;101009.16;5089644;28;20036;-66
2021/05/26 09:33:46;;;;;;;32.75;22.42;;;;;;;12.12;69.32;101015.44;5094510;28;20019;-67
2021/05/26 09:36:25;;;;;;;34.75;22.88;;;;;;;12.36;70.42;101006.56;5091844;28;20044;-66
2021/05/26 09:39:04;;;;;;;32.15;22.63;;;;;;;12.84;68.25;101012.72;5091189;28;20016;-66
2021/05/26 09:41:34;;;;;;;31.38;21.65;;;;;;;12.97;64.43;101010.03;5082953;28;20042;-67
2021/05/26 09:44:14;;;;;;;31.38;20.23;;;;;;;13.05;65.90;101001.16;5090747;28;20559;-67
2021/05/26 09:46:40;;;;;;;33.60;23.20;;;;;;;13.22;66.89;101006.41;5093176;28;20023;-70
2021/05/26 09:49:10;;;;;;;33.85;24.33;;;;;;;13.39;67.03;101016.09;5088726;28;20024;-75
2021/05/26 09:51:41;;;;;;;34.35;21.98;;;;;;;13.37;62.36;101001.97;5091400;28;20442;-66
2021/05/26 09:54:10;;;;;;;32.70;21.60;;;;;;;13.73;63.93;100999.97;5096146;28;20058;-67
2021/05/26 09:56:36;;;;;;;30.10;20.40;;;;;;;14.05;60.41;101001.53;5088059;28;20036;-70
2021/05/26 09:59:02;;;;;;;30.77;18.88;;;;;;;14.59;58.50;100988.66;5090553;28;20062;-67
2021/05/26 10:01:30;;;;;;;29.73;19.50;;;;;;;14.74;58.61;100987.66;5093065;28;20077;-66
2021/05/26 10:03:55;;;;;;;31.35;18.27;;;;;;;14.57;58.19;100992.22;5092055;28;20024;-67
2021/05/26 10:06:23;;;;;;;29.08;18.30;;;;;;;14.69;57.78;100999.22;5089477;28;20482;-65
2021/05/26 10:08:49;;;;;;;29.83;18.25;;;;;;;15.17;56.44;100991.59;5091776;28;20024;-66
2021/05/26 10:11:15;;;;;;;28.50;18.85;;;;;;;15.02;56.98;100991.78;5092266;28;20378;-66
2021/05/26 10:13:43;;;;;;;28.52;18.42;;;;;;;15.30;57.29;100998.53;5092321;28;20031;-66
2021/05/26 10:16:09;;;;;;;29.17;18.33;;;;;;;15.44;56.21;101001.00;5091188;28;20077;-68
2021/05/26 10:18:36;;;;;;;26.75;15.73;;;;;;;15.65;54.69;100981.19;5090968;28;20032;-65
2021/05/26 10:21:02;;;;;;;27.45;17.35;;;;;;;16.18;52.96;100991.94;5092890;28;20038;-65
2021/05/26 10:23:28;;;;;;;24.67;14.52;;;;;;;16.60;51.00;100985.00;5094221;28;20073;-65
2021/05/26 10:25:54;;;;;;;29.25;16.52;;;;;;;17.79;48.55;100986.13;5092721;28;20036;-69
2021/05/26 10:28:30;;;;;;;25.25;14.02;;;;;;;16.67;49.82;100983.97;5093769;28;20379;-66
2021/05/26 10:30:57;;;;;;;27.13;14.27;;;;;;;15.74;51.01;100990.84;5092581;28;20398;-65
2021/05/26 10:33:44;;;;;;;25.40;13.77;;;;;;;14.97;53.91;100987.38;5091720;28;20427;-65
2021/05/26 10:36:11;;;;;;;26.40;14.43;;;;;;;14.57;54.30;100978.91;5091249;28;20483;-65
2021/05/26 10:38:58;;;;;;;25.30;14.65;;;;;;;13.97;57.17;100998.06;5091400;28;20028;-65
2021/05/26 10:41:24;;;;;;;25.58;14.38;;;;;;;14.16;56.84;100994.34;5091022;28;20509;-65
2021/05/26 10:43:56;;;;;;;26.55;14.18;;;;;;;14.40;56.25;100993.28;5092086;28;20028;-65
2021/05/26 10:46:35;;;;;;;26.45;15.10;;;;;;;16.09;53.01;100985.88;5090353;28;20024;-65
2021/05/26 10:49:09;;;;;;;26.33;15.55;;;;;;;17.44;51.12;100985.13;5090815;28;20016;-66
2021/05/26 10:51:56;;;;;;;26.02;14.93;;;;;;;16.61;51.07;100987.63;5091337;28;20028;-65
2021/05/26 10:54:40;;;;;;;26.05;13.60;;;;;;;16.57;51.02;100983.25;5095091;28;20031;-65
2021/05/26 10:57:07;;;;;;;25.17;14.68;;;;;;;15.69;51.67;100998.88;5100638;28;20036;-65
2021/05/26 10:59:33;;;;;;;25.13;13.65;;;;;;;14.96;53.45;100980.28;5103395;28;20039;-66
2021/05/26 11:02:08;;;;;;;23.92;12.88;;;;;;;14.32;55.43;100994.25;5101951;28;20020;-66
2021/05/26 11:04:38;;;;;;;24.70;13.95;;;;;;;13.85;56.21;100999.91;5102880;28;20382;-65
2021/05/26 11:07:32;;;;;;;24.58;13.70;;;;;;;13.57;58.86;100999.16;5102267;28;20056;-65
2021/05/26 11:10:07;;;;;;;25.50;14.65;;;;;;;13.13;60.97;101001.09;5097092;28;20032;-65
2021/05/26 11:12:57;;;;;;;25.08;14.07;;;;;;;13.14;61.50;101002.88;5103599;28;20027;-65
2021/05/26 11:15:41;;;;;;;24.45;12.43;;;;;;;12.94;61.02;101018.00;5097385;28;20375;-65
2021/05/26 11:18:13;;;;;;;19.02;5.70;;;;;;;12.96;57.46;101022.41;5091098;28;20028;-66